Time;durP1;ratioP1;P1;durP2;ratioP2;P2;SDS_P1;SDS_P2;PMS_P1;PMS_P2;Temp;Humidity;BMP_temperature;BMP_pressure;BME280_temperature;BME280_humidity;BME280_pressure;Samples;Min_cycle;Max_cycle;Signal;HPM_P1;HPM_P2
2023/01/11 00:01:12;;;;;;;5.03;2.97;;;;;;;;;;10472927;28;20062;-76
2023/01/11 00:06:12;;;;;;;2.53;2.27;;;;;;;;;;10496640;28;20036;-77
2023/01/11 00:11:14;;;;;;;5.18;2.78;;;;;;;;;;10515002;28;20324;-79
2023/01/11 00:16:15;;;;;;;4.97;2.35;;;;;;;;;;10498695;28;20045;-78
2023/01/11 00:21:17;;;;;;;4.50;2.78;;;;;;;;;;10502763;28;20048;-76
2023/01/11 00:26:17;;;;;;;5.87;2.70;;;;;;;;;;10495785;28;20064;-77
2023/01/11 00:31:18;;;;;;;5.75;2.75;;;;;;;;;;10508908;28;20752;-77
2023/01/11 00:36:19;;;;;;;4.97;2.70;;;;;;;;;;10501560;28;20044;-78
2023/01/11 00:52:03;;;;;;;6.05;3.00;;;;;;;;;;10496533;28;20067;-79
2023/01/11 00:57:06;;;;;;;7.78;3.00;;;;;;;;;;10520616;28;20055;-79
2023/01/11 01:02:07;;;;;;;3.97;2.78;;;;;;;;;;10499480;28;20565;-77
2023/01/11 01:07:07;;;;;;;3.63;2.40;;;;;;;;;;10561371;28;20044;-78
2023/01/11 01:12:09;;;;;;;6.15;3.10;;;;;;;;;;10573822;28;20061;-81
2023/01/11 01:17:09;;;;;;;9.77;3.47;;;;;;;;;;10562512;28;20044;-76
2023/01/11 01:22:09;;;;;;;5.15;3.25;;;;;;;;;;10523840;28;20113;-78
2023/01/11 01:27:15;;;;;;;9.45;3.90;;;;;;;;;;10520017;28;20839;-77
2023/01/11 01:32:15;;;;;;;8.63;3.38;;;;;;;;;;10510252;28;20060;-78
2023/01/11 01:37:16;;;;;;;5.33;3.40;;;;;;;;;;10493107;28;20207;-78
2023/01/11 01:42:24;;;;;;;5.70;3.58;;;;;;;;;;10516971;28;20332;-79
2023/01/11 01:47:28;;;;;;;8.25;3.75;;;;;;;;;;10503258;28;20049;-78
2023/01/11 01:52:29;;;;;;;5.65;3.65;;;;;;;;;;10500496;28;20051;-78
2023/01/11 01:57:32;;;;;;;7.28;4.40;;;;;;;;;;10554456;28;20040;-76
2023/01/11 02:02:35;;;;;;;8.23;3.58;;;;;;;;;;10549461;28;20040;-80
2023/01/11 02:07:37;;;;;;;6.18;3.42;;;;;;;;;;10528034;28;20189;-78
2023/01/11 02:12:57;;;;;;;7.55;4.50;;;;;;;;;;10509777;28;20052;-78
2023/01/11 02:17:59;;;;;;;6.05;4.07;;;;;;;;;;10478124;28;20127;-79
2023/01/11 02:23:16;;;;;;;8.73;3.95;;;;;;;;;;10492669;28;20048;-78
2023/01/11 02:28:23;;;;;;;4.72;3.83;;;;;;;;;;10474271;28;20539;-76
2023/01/11 02:33:33;;;;;;;7.28;4.43;;;;;;;;;;10437954;28;20055;-77
2023/01/11 02:39:06;;;;;;;7.43;4.75;;;;;;;;;;10463804;28;20044;-77
2023/01/11 02:49:34;;;;;;;8.97;4.53;;;;;;;;;;10504694;28;20075;-76
2023/01/11 02:54:36;;;;;;;8.52;5.03;;;;;;;;;;10504754;28;20052;-77
2023/01/11 02:59:38;;;;;;;9.32;4.22;;;;;;;;;;10512080;28;20519;-79
2023/01/11 03:04:40;;;;;;;5.95;4.00;;;;;;;;;;10515461;28;20065;-77
2023/01/11 03:10:05;;;;;;;7.95;4.60;;;;;;;;;;10517852;28;20048;-79
2023/01/11 03:15:07;;;;;;;5.50;4.40;;;;;;;;;;10491688;28;20171;-78
2023/01/11 03:20:44;;;;;;;9.70;4.80;;;;;;;;;;10494371;28;20054;-79
2023/01/11 03:25:50;;;;;;;6.32;4.45;;;;;;;;;;10435118;28;20075;-79
2023/01/11 03:30:57;;;;;;;8.40;4.55;;;;;;;;;;10513148;28;20120;-80
2023/01/11 03:36:17;;;;;;;7.63;4.50;;;;;;;;;;10542357;28;20407;-77
2023/01/11 03:41:23;;;;;;;6.32;4.00;;;;;;;;;;10534203;28;20041;-79
2023/01/11 03:46:32;;;;;;;7.38;4.63;;;;;;;;;;10504556;28;20086;-77
2023/01/11 03:51:41;;;;;;;6.72;4.50;;;;;;;;;;10499052;28;20053;-78
2023/01/11 03:56:53;;;;;;;6.25;4.25;;;;;;;;;;10499738;28;20126;-78
2023/01/11 04:01:54;;;;;;;7.85;4.07;;;;;;;;;;10499270;28;20173;-79
2023/01/11 04:06:56;;;;;;;5.90;4.40;;;;;;;;;;10516556;28;20480;-78
2023/01/11 04:11:56;;;;;;;7.30;4.15;;;;;;;;;;10562019;28;20059;-77
2023/01/11 04:16:57;;;;;;;5.70;3.83;;;;;;;;;;10554671;28;20040;-77
2023/01/11 04:21:57;;;;;;;13.50;4.53;;;;;;;;;;10555226;28;20286;-79
2023/01/11 04:26:59;;;;;;;6.03;4.30;;;;;;;;;;10522049;28;20864;-79
2023/01/11 04:31:59;;;;;;;5.00;4.05;;;;;;;;;;10485333;28;20064;-79
2023/01/11 04:37:00;;;;;;;6.85;3.50;;;;;;;;;;10482443;28;20170;-78
2023/01/11 04:42:18;;;;;;;7.35;3.53;;;;;;;;;;10438913;28;20137;-76
2023/01/11 04:47:20;;;;;;;6.55;3.70;;;;;;;;;;10458782;28;20052;-77
2023/01/11 04:52:22;;;;;;;6.35;3.50;;;;;;;;;;10459167;28;20045;-75
2023/01/11 04:57:24;;;;;;;8.02;3.95;;;;;;;;;;10468957;28;20041;-76
2023/01/11 05:02:24;;;;;;;7.15;3.55;;;;;;;;;;10474898;28;20040;-81
2023/01/11 05:07:25;;;;;;;5.78;3.45;;;;;;;;;;10469415;28;20033;-77
2023/01/11 05:12:27;;;;;;;5.45;3.78;;;;;;;;;;10471906;28;20086;-79
2023/01/11 05:17:29;;;;;;;5.93;2.97;;;;;;;;;;10461171;28;20120;-79
2023/01/11 05:22:30;;;;;;;4.53;3.38;;;;;;;;;;10468825;28;20071;-79
2023/01/11 05:27:35;;;;;;;5.13;3.47;;;;;;;;;;10472338;28;20051;-80
2023/01/11 05:32:37;;;;;;;8.52;3.53;;;;;;;;;;10464546;28;20451;-79
2023/01/11 05:37:37;;;;;;;4.68;3.55;;;;;;;;;;10451981;28;20133;-79
2023/01/11 05:42:38;;;;;;;8.27;3.72;;;;;;;;;;10474231;28;20072;-80
2023/01/11 05:47:39;;;;;;;4.90;2.85;;;;;;;;;;10467687;28;20067;-78
2023/01/11 05:52:39;;;;;;;6.55;3.75;;;;;;;;;;10450646;28;20044;-78
2023/01/11 05:57:41;;;;;;;5.93;3.35;;;;;;;;;;10468969;28;20102;-77
2023/01/11 06:02:42;;;;;;;4.43;3.03;;;;;;;;;;10468042;28;20156;-78
2023/01/11 06:07:42;;;;;;;5.47;3.22;;;;;;;;;;10463521;28;20045;-78
2023/01/11 06:12:49;;;;;;;4.70;3.40;;;;;;;;;;10467755;28;20052;-77
2023/01/11 06:17:52;;;;;;;4.45;3.13;;;;;;;;;;10458582;28;20049;-78
2023/01/11 06:22:53;;;;;;;3.77;3.37;;;;;;;;;;10468285;28;20048;-78
2023/01/11 06:27:53;;;;;;;5.20;3.20;;;;;;;;;;10473141;28;20044;-76
2023/01/11 06:33:04;;;;;;;5.43;3.23;;;;;;;;;;10470068;28;20201;-76
2023/01/11 06:38:04;;;;;;;6.43;3.45;;;;;;;;;;10479516;28;20372;-76
2023/01/11 06:43:08;;;;;;;3.42;2.60;;;;;;;;;;10477670;28;20059;-78
2023/01/11 06:48:09;;;;;;;4.80;3.17;;;;;;;;;;10483124;28;20059;-78
2023/01/11 06:53:10;;;;;;;4.65;3.13;;;;;;;;;;10482663;28;20180;-78
2023/01/11 06:58:11;;;;;;;6.97;3.13;;;;;;;;;;10484952;28;20854;-76
2023/01/11 07:03:12;;;;;;;3.85;3.17;;;;;;;;;;10458411;28;20048;-78
2023/01/11 07:08:14;;;;;;;5.63;3.28;;;;;;;;;;11281278;22;20065;-77
2023/01/11 07:13:16;;;;;;;5.00;3.40;;;;;;;;;;10411647;28;20053;-83
2023/01/11 07:18:30;;;;;;;5.70;2.47;;;;;;;;;;10411356;28;20058;-78
2023/01/11 07:23:51;;;;;;;4.05;3.08;;;;;;;;;;10379428;28;20403;-76
2023/01/11 07:28:51;;;;;;;4.05;3.13;;;;;;;;;;10393520;28;20054;-77
2023/01/11 07:33:51;;;;;;;4.40;3.65;;;;;;;;;;10394049;28;20054;-77
2023/01/11 07:38:52;;;;;;;3.90;2.50;;;;;;;;;;10374858;28;20049;-78
2023/01/11 07:43:52;;;;;;;7.40;2.75;;;;;;;;;;10383147;28;20330;-77
2023/01/11 07:48:53;;;;;;;4.57;2.55;;;;;;;;;;10385713;28;20041;-77
2023/01/11 07:53:53;;;;;;;4.97;2.75;;;;;;;;;;10372820;28;20054;-77
2023/01/11 07:58:55;;;;;;;5.25;3.00;;;;;;;;;;10375497;28;20082;-78
2023/01/11 08:03:56;;;;;;;7.50;2.90;;;;;;;;;;10376824;28;20060;-76
2023/01/11 08:08:56;;;;;;;5.65;2.75;;;;;;;;;;10386792;28;20426;-77
2023/01/11 08:19:15;;;;;;;5.47;2.78;;;;;;;;;;10385092;28;20053;-78
2023/01/11 08:24:16;;;;;;;3.53;2.58;;;;;;;;;;10403768;28;20046;-78
2023/01/11 08:29:17;;;;;;;5.47;3.00;;;;;;;;;;10371792;28;20049;-77
2023/01/11 08:34:17;;;;;;;5.18;3.70;;;;;;;;;;10390474;28;20045;-77
2023/01/11 08:39:17;;;;;;;4.10;2.50;;;;;;;;;;10390506;28;20056;-78
2023/01/11 08:44:19;;;;;;;4.20;2.30;;;;;;;;;;10395658;28;20050;-78
2023/01/11 08:49:21;;;;;;;4.45;2.10;;;;;;;;;;10433892;28;20304;-79
2023/01/11 08:54:23;;;;;;;5.18;2.60;;;;;;;;;;10392532;28;20081;-80
2023/01/11 08:59:24;;;;;;;5.03;2.53;;;;;;;;;;10429787;28;20116;-81
2023/01/11 09:04:25;;;;;;;3.10;2.40;;;;;;;;;;10418385;28;20076;-78
2023/01/11 09:09:26;;;;;;;5.97;2.60;;;;;;;;;;10419328;28;20057;-77
2023/01/11 09:14:28;;;;;;;4.15;2.08;;;;;;;;;;10402450;28;20080;-80
2023/01/11 09:19:32;;;;;;;3.13;2.00;;;;;;;;;;10417982;28;20460;-79
2023/01/11 09:24:37;;;;;;;8.48;2.53;;;;;;;;;;10371884;28;20053;-76
2023/01/11 09:29:38;;;;;;;2.70;2.08;;;;;;;;;;10407734;28;20046;-78
2023/01/11 09:34:41;;;;;;;3.75;2.10;;;;;;;;;;10389006;28;20707;-77
2023/01/11 09:39:45;;;;;;;4.63;2.42;;;;;;;;;;10401067;28;20089;-77
2023/01/11 09:45:06;;;;;;;3.92;2.40;;;;;;;;;;10396230;28;20049;-77
2023/01/11 09:50:20;;;;;;;2.13;1.90;;;;;;;;;;10416624;28;20064;-81
2023/01/11 09:55:26;;;;;;;3.20;2.10;;;;;;;;;;10424862;28;20560;-75
2023/01/11 10:00:48;;;;;;;2.72;1.90;;;;;;;;;;10362506;28;20100;-77
2023/01/11 10:06:07;;;;;;;5.65;2.20;;;;;;;;;;10403029;28;20045;-76
2023/01/11 10:11:19;;;;;;;2.65;2.03;;;;;;;;;;10395041;28;20053;-78
2023/01/11 10:16:33;;;;;;;2.90;1.73;;;;;;;;;;10411928;28;20056;-78
2023/01/11 10:21:42;;;;;;;3.08;1.70;;;;;;;;;;10395873;28;20049;-80
2023/01/11 10:26:45;;;;;;;2.88;1.90;;;;;;;;;;10438868;28;20045;-79
2023/01/11 10:37:47;;;;;;;3.65;2.00;;;;;;;;;;10412888;28;20077;-77
2023/01/11 10:42:43;;;;;;;3.70;2.10;;;;;;;;;;10396302;28;20048;-77
2023/01/11 10:47:50;;;;;;;2.97;2.10;;;;;;;;;;10387036;28;20677;-78
2023/01/11 10:52:59;;;;;;;4.60;2.70;;;;;;;;;;10401309;28;20708;-77
2023/01/11 10:58:12;;;;;;;3.45;2.30;;;;;;;;;;10410168;28;20037;-77
2023/01/11 11:03:19;;;;;;;3.40;2.17;;;;;;;;;;10388551;28;20128;-78
2023/01/11 11:08:39;;;;;;;5.68;1.95;;;;;;;;;;10375819;28;20300;-77
2023/01/11 11:13:48;;;;;;;3.95;2.17;;;;;;;;;;10372931;28;20061;-78
2023/01/11 11:18:54;;;;;;;5.30;1.98;;;;;;;;;;10396464;28;20050;-78
2023/01/11 11:23:59;;;;;;;3.17;2.13;;;;;;;;;;10355754;28;20042;-80
2023/01/11 11:29:02;;;;;;;5.30;2.20;;;;;;;;;;10381453;28;20046;-78
2023/01/11 11:34:07;;;;;;;4.87;2.20;;;;;;;;;;10384139;28;20591;-76
2023/01/11 11:39:10;;;;;;;5.05;2.72;;;;;;;;;;10379804;28;20053;-77
2023/01/11 11:44:27;;;;;;;4.85;2.42;;;;;;;;;;10369239;28;20081;-78
2023/01/11 11:49:31;;;;;;;4.75;2.35;;;;;;;;;;10371546;28;20050;-77
2023/01/11 11:54:33;;;;;;;4.57;2.60;;;;;;;;;;10392032;28;20060;-77
2023/01/11 11:59:35;;;;;;;;;;;;;;;;;;10384789;28;20282;-77
2023/01/11 12:04:41;;;;;;;6.45;4.35;;;;;;;;;;10395751;28;19917;-77
2023/01/11 12:09:46;;;;;;;5.75;3.40;;;;;;;;;;10400091;28;20042;-78
2023/01/11 12:15:05;;;;;;;4.25;2.60;;;;;;;;;;10406003;28;20053;-77
2023/01/11 12:20:25;;;;;;;6.25;2.60;;;;;;;;;;10384197;28;20454;-77
2023/01/11 12:25:27;;;;;;;3.60;2.08;;;;;;;;;;10392889;28;20195;-77
2023/01/11 12:30:28;;;;;;;3.90;2.03;;;;;;;;;;10373391;28;20481;-79
2023/01/11 12:35:37;;;;;;;5.33;2.30;;;;;;;;;;10386851;28;20037;-79
2023/01/11 12:40:47;;;;;;;4.20;2.72;;;;;;;;;;10380431;28;20294;-78
2023/01/11 12:45:58;;;;;;;5.28;3.10;;;;;;;;;;10388917;28;20445;-79
2023/01/11 12:51:10;;;;;;;4.85;2.70;;;;;;;;;;10386220;28;20122;-79
2023/01/11 12:56:31;;;;;;;3.85;2.60;;;;;;;;;;10387843;28;20049;-78
2023/01/11 13:01:51;;;;;;;5.63;3.38;;;;;;;;;;10391422;28;20042;-79
2023/01/11 13:07:12;;;;;;;8.10;3.67;;;;;;;;;;10416696;28;20038;-79
2023/01/11 13:12:15;;;;;;;6.20;3.38;;;;;;;;;;10435013;23;20054;-78
2023/01/11 13:17:19;;;;;;;4.40;2.72;;;;;;;;;;10442745;28;20108;-77
2023/01/11 13:22:23;;;;;;;7.05;3.20;;;;;;;;;;10384686;28;20075;-78
2023/01/11 13:27:27;;;;;;;3.92;2.80;;;;;;;;;;10393997;28;20050;-79
2023/01/11 13:32:33;;;;;;;4.90;2.80;;;;;;;;;;10407467;28;20057;-78
2023/01/11 13:37:43;;;;;;;3.28;2.60;;;;;;;;;;10406102;28;20156;-80
2023/01/11 13:42:47;;;;;;;5.18;3.28;;;;;;;;;;10397238;28;20049;-77
2023/01/11 13:47:55;;;;;;;4.43;2.90;;;;;;;;;;10382057;28;20072;-79
2023/01/11 13:53:14;;;;;;;3.42;2.90;;;;;;;;;;10381140;28;20053;-78
2023/01/11 13:58:34;;;;;;;4.63;2.88;;;;;;;;;;10383472;28;20501;-76
2023/01/11 14:03:54;;;;;;;4.60;3.20;;;;;;;;;;10395839;28;20159;-77
2023/01/11 14:09:06;;;;;;;7.45;4.05;;;;;;;;;;10390032;28;20049;-78
2023/01/11 14:14:12;;;;;;;5.45;3.22;;;;;;;;;;10389438;28;20144;-79
2023/01/11 14:19:19;;;;;;;6.65;3.90;;;;;;;;;;10380990;28;20041;-78
2023/01/11 14:24:20;;;;;;;5.13;3.70;;;;;;;;;;10384662;28;20057;-77
2023/01/11 14:29:36;;;;;;;6.72;5.38;;;;;;;;;;10356187;28;20068;-78
2023/01/11 14:35:00;;;;;;;7.20;4.75;;;;;;;;;;10379386;28;20034;-77
2023/01/11 14:40:12;;;;;;;9.90;6.00;;;;;;;;;;10344477;28;20106;-77
2023/01/11 14:45:18;;;;;;;7.95;4.47;;;;;;;;;;10389047;28;20392;-79
2023/01/11 14:50:18;;;;;;;6.43;4.18;;;;;;;;;;10372869;28;20081;-78
2023/01/11 14:55:30;;;;;;;7.10;3.77;;;;;;;;;;10399580;28;20384;-78
2023/01/11 15:00:30;;;;;;;7.75;4.75;;;;;;;;;;10402855;28;20292;-77
2023/01/11 15:05:36;;;;;;;7.40;4.70;;;;;;;;;;10394571;28;20459;-78
2023/01/11 15:10:38;;;;;;;7.10;4.65;;;;;;;;;;10380517;28;20354;-77
2023/01/11 15:21:04;;;;;;;5.60;4.10;;;;;;;;;;10412094;28;20049;-82
2023/01/11 15:26:06;;;;;;;6.03;4.15;;;;;;;;;;10433887;28;20050;-81
2023/01/11 15:31:26;;;;;;;6.00;3.97;;;;;;;;;;10441997;28;20037;-80
2023/01/11 15:36:48;;;;;;;10.27;4.60;;;;;;;;;;10451234;28;20109;-79
2023/01/11 15:42:13;;;;;;;4.65;3.45;;;;;;;;;;10417680;28;20029;-83
2023/01/11 15:47:32;;;;;;;3.58;2.47;;;;;;;;;;10395179;28;20734;-80
2023/01/11 15:52:49;;;;;;;2.17;1.85;;;;;;;;;;10379856;28;20045;-78
2023/01/11 15:58:01;;;;;;;2.30;1.73;;;;;;;;;;10390185;28;20045;-79
2023/01/11 16:03:20;;;;;;;2.95;1.95;;;;;;;;;;10385031;28;20041;-79
2023/01/11 16:08:31;;;;;;;2.33;1.40;;;;;;;;;;10391341;28;20040;-80
2023/01/11 16:13:34;;;;;;;1.75;1.48;;;;;;;;;;10375597;28;20068;-80
2023/01/11 16:18:55;;;;;;;3.22;2.13;;;;;;;;;;10388904;28;22918;-80
2023/01/11 16:23:56;;;;;;;2.15;1.60;;;;;;;;;;10388549;28;20057;-79
2023/01/11 16:29:01;;;;;;;3.45;1.80;;;;;;;;;;10398892;28;20097;-80
2023/01/11 16:34:05;;;;;;;2.53;1.83;;;;;;;;;;10420610;28;20060;-78
2023/01/11 16:39:08;;;;;;;2.25;1.60;;;;;;;;;;10414322;28;20579;-78
2023/01/11 16:44:19;;;;;;;4.57;3.60;;;;;;;;;;10418805;28;20053;-80
2023/01/11 16:49:26;;;;;;;3.90;2.28;;;;;;;;;;10411713;28;20049;-78
2023/01/11 16:54:33;;;;;;;2.88;2.30;;;;;;;;;;10413291;28;20065;-79
2023/01/11 16:59:36;;;;;;;2.53;2.30;;;;;;;;;;10428081;28;20069;-79
2023/01/11 17:04:48;;;;;;;3.90;2.40;;;;;;;;;;10426246;28;20116;-77
2023/01/11 17:09:55;;;;;;;3.35;1.90;;;;;;;;;;10398038;28;20064;-78
2023/01/11 17:15:05;;;;;;;3.65;2.60;;;;;;;;;;10411060;28;20053;-77
2023/01/11 17:20:16;;;;;;;2.55;1.80;;;;;;;;;;10426514;28;20049;-77
2023/01/11 17:25:17;;;;;;;1.98;1.67;;;;;;;;;;10427674;28;20041;-76
2023/01/11 17:30:18;;;;;;;4.05;2.92;;;;;;;;;;10414383;28;20060;-76
2023/01/11 17:35:29;;;;;;;1.70;1.60;;;;;;;;;;10427029;28;20136;-76
2023/01/11 17:40:34;;;;;;;5.00;1.98;;;;;;;;;;10415427;28;20073;-77
2023/01/11 17:45:35;;;;;;;3.10;2.17;;;;;;;;;;10430781;28;20067;-76
2023/01/11 17:50:38;;;;;;;2.40;2.10;;;;;;;;;;10430898;28;20157;-78
2023/01/11 17:55:57;;;;;;;2.38;2.13;;;;;;;;;;10399313;28;20446;-79
2023/01/11 18:01:06;;;;;;;2.30;2.10;;;;;;;;;;10422272;28;20073;-77
2023/01/11 18:06:13;;;;;;;4.47;2.30;;;;;;;;;;10412698;28;20097;-78
2023/01/11 18:11:21;;;;;;;3.65;3.20;;;;;;;;;;10381019;28;20065;-79
2023/01/11 18:16:23;;;;;;;3.97;3.35;;;;;;;;;;10386890;28;20489;-80
2023/01/11 18:21:39;;;;;;;6.75;4.18;;;;;;;;;;10398747;28;20799;-79
2023/01/11 18:26:43;;;;;;;4.15;3.50;;;;;;;;;;10400976;28;20702;-79
2023/01/11 18:31:43;;;;;;;;;;;;;;;;;;10396560;28;20092;-78
2023/01/11 18:36:43;;;;;;;3.83;3.42;;;;;;;;;;10393202;28;19921;-79
2023/01/11 18:52:26;;;;;;;4.63;3.67;;;;;;;;;;10379402;28;20053;-78
2023/01/11 18:57:30;;;;;;;5.65;3.58;;;;;;;;;;10389990;28;20053;-78
2023/01/11 19:02:40;;;;;;;5.00;4.00;;;;;;;;;;10373308;28;20408;-79
2023/01/11 19:07:49;;;;;;;5.00;3.45;;;;;;;;;;10388466;28;20061;-82
2023/01/11 19:12:49;;;;;;;7.47;5.38;;;;;;;;;;10372752;28;20501;-78
2023/01/11 19:17:55;;;;;;;4.55;3.33;;;;;;;;;;10390807;28;20100;-78
2023/01/11 19:22:55;;;;;;;8.27;4.45;;;;;;;;;;10374219;28;20091;-80
2023/01/11 19:27:57;;;;;;;7.15;4.47;;;;;;;;;;10344329;28;20156;-78
2023/01/11 19:33:01;;;;;;;6.50;4.00;;;;;;;;;;10336046;28;20058;-77
2023/01/11 19:38:02;;;;;;;6.22;3.95;;;;;;;;;;10359977;28;20049;-77
2023/01/11 19:43:04;;;;;;;6.80;3.55;;;;;;;;;;10394890;28;20046;-79
2023/01/11 19:48:05;;;;;;;6.30;3.67;;;;;;;;;;10390057;28;20042;-76
2023/01/11 19:53:07;;;;;;;4.97;2.88;;;;;;;;;;10388507;28;20062;-77
2023/01/11 19:58:07;;;;;;;3.97;3.23;;;;;;;;;;10402234;28;20038;-80
2023/01/11 20:03:09;;;;;;;4.57;3.20;;;;;;;;;;10394625;28;20273;-78
2023/01/11 20:08:13;;;;;;;5.05;3.13;;;;;;;;;;10384765;28;20052;-78
2023/01/11 20:13:14;;;;;;;6.75;3.28;;;;;;;;;;10351779;28;20053;-78
2023/01/11 20:18:18;;;;;;;4.63;2.95;;;;;;;;;;10333609;28;20064;-76
2023/01/11 20:23:19;;;;;;;6.60;3.40;;;;;;;;;;10354126;28;20049;-75
2023/01/11 20:28:20;;;;;;;5.78;3.03;;;;;;;;;;10362694;28;20308;-80
2023/01/11 20:33:25;;;;;;;8.80;3.35;;;;;;;;;;10337293;28;20062;-78
2023/01/11 20:38:28;;;;;;;4.93;3.30;;;;;;;;;;10347875;28;20045;-78
2023/01/11 20:43:30;;;;;;;6.30;2.78;;;;;;;;;;10338305;28;20062;-79
2023/01/11 20:48:31;;;;;;;5.65;2.70;;;;;;;;;;10355174;28;20138;-78
2023/01/11 20:53:32;;;;;;;8.48;2.90;;;;;;;;;;10326867;28;20058;-77
2023/01/11 20:58:34;;;;;;;7.97;2.63;;;;;;;;;;10336084;28;20053;-77
2023/01/11 21:03:34;;;;;;;6.05;2.60;;;;;;;;;;10345485;28;20506;-78
2023/01/11 21:08:35;;;;;;;5.32;1.90;;;;;;;;;;10337755;28;20082;-77
2023/01/11 21:13:36;;;;;;;5.78;2.30;;;;;;;;;;10332755;28;20054;-76
2023/01/11 21:18:38;;;;;;;4.22;2.03;;;;;;;;;;10345697;28;20125;-79
2023/01/11 21:23:40;;;;;;;8.40;2.45;;;;;;;;;;10347747;28;20136;-77
2023/01/11 21:28:42;;;;;;;6.50;2.50;;;;;;;;;;10347873;28;20052;-77
2023/01/11 21:33:43;;;;;;;4.77;2.33;;;;;;;;;;10350019;28;20058;-76
2023/01/11 21:38:43;;;;;;;7.85;2.50;;;;;;;;;;10319202;28;20824;-76
2023/01/11 21:43:44;;;;;;;5.47;2.40;;;;;;;;;;10349464;28;20038;-78
2023/01/11 21:48:46;;;;;;;7.63;2.60;;;;;;;;;;10345970;28;20107;-77
2023/01/11 21:53:49;;;;;;;11.18;2.63;;;;;;;;;;10332644;28;20062;-77
2023/01/11 21:58:49;;;;;;;;;;;;;;;;;;10349526;28;20053;-76
2023/01/11 22:03:50;;;;;;;6.50;2.35;;;;;;;;;;10358304;28;19910;-77
2023/01/11 22:08:50;;;;;;;7.40;2.17;;;;;;;;;;10364636;28;20065;-77
2023/01/11 22:13:52;;;;;;;8.77;1.90;;;;;;;;;;10318539;28;20304;-77
2023/01/11 22:18:52;;;;;;;4.60;1.63;;;;;;;;;;10329488;28;20046;-76
2023/01/11 22:23:56;;;;;;;5.90;1.73;;;;;;;;;;10327708;28;20042;-76
2023/01/11 22:29:13;;;;;;;8.52;2.15;;;;;;;;;;10344004;28;20129;-76
2023/01/11 22:34:18;;;;;;;8.25;2.00;;;;;;;;;;10348802;28;20161;-76
2023/01/11 22:39:19;;;;;;;5.60;1.55;;;;;;;;;;10344844;28;20054;-77
2023/01/11 22:44:20;;;;;;;4.35;1.75;;;;;;;;;;10342088;28;20509;-77
2023/01/11 22:49:20;;;;;;;9.00;2.78;;;;;;;;;;10313526;28;20456;-76
2023/01/11 22:54:22;;;;;;;7.10;2.05;;;;;;;;;;10346967;28;20058;-78
2023/01/11 22:59:22;;;;;;;5.78;2.13;;;;;;;;;;10364031;28;20058;-78
2023/01/11 23:04:23;;;;;;;8.57;2.10;;;;;;;;;;10343170;28;20058;-76
2023/01/11 23:09:24;;;;;;;6.05;2.17;;;;;;;;;;10331564;28;20137;-76
2023/01/11 23:14:31;;;;;;;4.75;2.15;;;;;;;;;;10336777;28;20240;-77
2023/01/11 23:19:36;;;;;;;6.20;2.25;;;;;;;;;;10351900;28;20050;-76
2023/01/11 23:24:36;;;;;;;8.00;2.72;;;;;;;;;;10340500;28;20053;-77
2023/01/11 23:29:38;;;;;;;5.85;2.30;;;;;;;;;;10381305;28;20066;-77
2023/01/11 23:34:38;;;;;;;15.98;2.60;;;;;;;;;;10389404;28;20038;-76
2023/01/11 23:39:39;;;;;;;7.18;2.80;;;;;;;;;;10389795;28;20039;-77
2023/01/11 23:44:40;;;;;;;6.88;2.03;;;;;;;;;;10376346;28;20050;-78
2023/01/11 23:49:42;;;;;;;8.48;2.20;;;;;;;;;;10388699;28;20050;-78
2023/01/11 23:54:44;;;;;;;7.82;2.33;;;;;;;;;;10338390;28;20057;-75
2023/01/11 23:59:44;;;;;;;6.80;1.83;;;;;;;;;;10365469;28;20050;-77
